createdAt,value
2019-01-22T00:09:55.091Z,0.0
2019-01-22T00:20:06.427Z,0.0
2019-01-22T00:30:17.431Z,0.0
2019-01-22T00:41:08.925Z,0.0
2019-01-22T00:51:22.935Z,0.0
2019-01-22T01:01:35.285Z,0.0
2019-01-22T01:11:47.645Z,0.0
2019-01-22T01:22:39.638Z,0.0
2019-01-22T01:32:54.315Z,0.0
2019-01-22T01:44:00.922Z,0.0
2019-01-22T01:54:12.659Z,0.0
2019-01-22T02:04:27.034Z,0.0
2019-01-22T02:14:39.092Z,0.0
2019-01-22T02:25:24.842Z,0.0
2019-01-22T02:35:36.119Z,0.0
2019-01-22T02:46:06.683Z,0.0
2019-01-22T02:56:20.703Z,0.0
2019-01-22T03:07:55.347Z,0.0
2019-01-22T03:18:40.450Z,0.0
2019-01-22T03:29:29.776Z,0.0
2019-01-22T03:39:44.249Z,0.0
2019-01-22T03:52:07.105Z,0.0
2019-01-22T04:02:52.302Z,0.0
2019-01-22T04:13:51.393Z,0.0
2019-01-22T04:24:05.620Z,0.0
2019-01-22T04:34:51.629Z,0.0
2019-01-22T04:45:05.231Z,0.0
2019-01-22T04:55:16.914Z,0.0
2019-01-22T05:06:02.373Z,0.0
2019-01-22T05:16:15.426Z,0.0
2019-01-22T05:26:27.242Z,0.0
2019-01-22T05:36:38.934Z,0.0
2019-01-22T05:46:50.682Z,0.0
2019-01-22T05:57:02.077Z,0.0
2019-01-22T06:07:13.467Z,0.0
2019-01-22T06:17:27.350Z,0.0
2019-01-22T06:27:40.756Z,0.0
2019-01-22T06:37:54.320Z,0.0
2019-01-22T06:48:08.516Z,0.0
2019-01-22T06:58:23.212Z,8.0
2019-01-22T07:09:08.361Z,36.0
2019-01-22T07:19:21.484Z,144.0
2019-01-22T07:29:34.926Z,320.0
2019-01-22T07:39:48.693Z,620.0
2019-01-22T07:50:02.234Z,1152.0
2019-01-22T08:00:15.493Z,1576.0
2019-01-22T08:10:28.726Z,1976.0
2019-01-22T08:20:42.159Z,2736.0
2019-01-22T08:30:57.074Z,3328.0
2019-01-22T08:41:10.304Z,3992.0
2019-01-22T08:51:23.641Z,4808.0
2019-01-22T09:01:37.356Z,5504.0
2019-01-22T09:11:48.849Z,6044.0
2019-01-22T09:22:00.237Z,6276.0
2019-01-22T09:32:13.614Z,6068.0
2019-01-22T09:42:58.392Z,6348.0
2019-01-22T09:53:11.737Z,7820.0
2019-01-22T10:03:24.771Z,8076.0
2019-01-22T10:14:10.059Z,9572.0
2019-01-22T10:24:23.951Z,9948.0
2019-01-22T10:35:20.233Z,10824.0
2019-01-22T10:46:26.452Z,12012.0
2019-01-22T10:57:11.433Z,12896.0
2019-01-22T11:08:03.285Z,14576.0
2019-01-22T11:18:16.948Z,41824.0
2019-01-22T11:29:02.187Z,53984.0
2019-01-22T11:40:00.907Z,33920.0
2019-01-22T11:50:25.990Z,31488.0
2019-01-22T12:00:39.792Z,13816.0
2019-01-22T12:11:25.038Z,17632.0
2019-01-22T12:21:38.343Z,27488.0
2019-01-22T12:31:51.762Z,21984.0
2019-01-22T12:42:36.446Z,17952.0
2019-01-22T12:53:19.175Z,12288.0
2019-01-22T13:04:14.315Z,10864.0
2019-01-22T13:14:28.848Z,8056.0
2019-01-22T13:24:42.721Z,6388.0
2019-01-22T13:35:56.738Z,1880.0
2019-01-22T13:46:46.117Z,1832.0
2019-01-22T13:56:59.581Z,1648.0
2019-01-22T14:07:32.202Z,1380.0
2019-01-22T14:17:46.051Z,1512.0
2019-01-22T14:27:56.982Z,1040.0
2019-01-22T14:38:42.596Z,1000.0
2019-01-22T14:49:27.491Z,692.0
2019-01-22T15:00:26.154Z,572.0
2019-01-22T15:10:44.015Z,488.0
2019-01-22T15:21:29.035Z,372.0
2019-01-22T15:31:42.313Z,280.0
2019-01-22T15:42:39.125Z,160.0
2019-01-22T15:55:54.028Z,88.0
2019-01-22T16:06:38.661Z,32.0
2019-01-22T16:17:24.301Z,8.0
2019-01-22T16:27:37.830Z,0.0
2019-01-22T16:38:35.679Z,0.0
2019-01-22T16:50:33.285Z,0.0
2019-01-22T17:01:20.855Z,0.0
2019-01-22T17:11:31.584Z,0.0
2019-01-22T17:21:48.353Z,0.0
2019-01-22T17:32:09.582Z,0.0
2019-01-22T17:42:28.768Z,0.0
2019-01-22T17:53:17.018Z,0.0
2019-01-22T18:04:07.061Z,0.0
2019-01-22T18:14:58.207Z,0.0
2019-01-22T18:25:54.221Z,0.0
2019-01-22T18:36:40.920Z,0.0
2019-01-22T18:46:55.346Z,0.0
2019-01-22T18:57:09.484Z,0.0
2019-01-22T19:07:26.259Z,0.0
2019-01-22T19:17:40.822Z,0.0
2019-01-22T19:27:56.094Z,0.0
2019-01-22T19:38:07.600Z,0.0
2019-01-22T19:48:21.322Z,0.0
2019-01-22T19:58:34.457Z,0.0
2019-01-22T20:08:47.899Z,0.0
2019-01-22T20:19:01.231Z,0.0
2019-01-22T20:29:14.378Z,0.0
2019-01-22T20:39:27.627Z,0.0
2019-01-22T20:50:18.760Z,0.0
2019-01-22T21:01:00.619Z,0.0
2019-01-22T21:11:48.764Z,0.0
2019-01-22T21:22:04.334Z,0.0
2019-01-22T21:32:17.571Z,0.0
2019-01-22T21:42:30.694Z,0.0
2019-01-22T21:52:42.079Z,0.0
2019-01-22T22:03:28.680Z,0.0
2019-01-22T22:13:42.234Z,0.0
2019-01-22T22:23:56.430Z,0.0
2019-01-22T22:34:58.541Z,0.0
2019-01-22T22:46:21.877Z,0.0
2019-01-22T22:56:43.186Z,0.0
2019-01-22T23:07:41.191Z,0.0
2019-01-22T23:18:46.723Z,0.0
2019-01-22T23:29:13.090Z,0.0
2019-01-22T23:39:58.582Z,0.0
2019-01-22T23:50:12.609Z,0.0
